Observation data for Tulia on 05/23/2019      Previous  Date  Next       Current Mesonet Observations  Soil Data  Daily Summary Page  Observations in Plain Language
KTIS 230500Z 15011KT 20/10 A2983 RMK A01 T02000104  RH  056%=      5-min Rain = 0
KTIS 230505Z 15010KT 20/11 A2983 RMK A01 T01990107  RH  057%=      5-min Rain = 0
KTIS 230510Z 15010KT 20/11 A2983 RMK A01 T01980111  RH  059%=      5-min Rain = 0
KTIS 230515Z 15011KT 20/11 A2983 RMK A01 T01990114  RH  060%=      5-min Rain = 0
KTIS 230520Z 15011KT 20/12 A2983 RMK A01 T02000120  RH  062%=      5-min Rain = 0
KTIS 230525Z 15011G17KT 20/13 A2983 RMK A01 T02020125  RH  064%=      5-min Rain = 0
KTIS 230530Z 15013KT 21/13 A2983 RMK A01 T02050130  RH  065%=      5-min Rain = 0
KTIS 230535Z 15014KT 21/14 A2983 RMK A01 T02080136  RH  066%=      5-min Rain = 0
KTIS 230540Z 15014G19KT 21/14 A2983 RMK A01 T02110143  RH  068%=      5-min Rain = 0
KTIS 230545Z 15015G20KT 22/15 A2983 RMK A01 T02150148  RH  069%=      5-min Rain = 0
KTIS 230550Z 15015KT 22/15 A2983 RMK A01 T02150150  RH  070%=      5-min Rain = 0
KTIS 230555Z 16014KT 21/15 A2983 RMK A01 T02130151  RH  071%=      5-min Rain = 0
KTIS 230600Z 16014G19KT 21/15 A2983 RMK A01 T02120151  RH  071%=      5-min Rain = 0
KTIS 230605Z 16013KT 21/15 A2983 RMK A01 T02110152  RH  072%=      5-min Rain = 0
KTIS 230610Z 16014KT 21/15 A2983 RMK A01 T02090153  RH  073%=      5-min Rain = 0
KTIS 230615Z 16013KT 21/15 A2983 RMK A01 T02080154  RH  074%=      5-min Rain = 0
KTIS 230620Z 16012KT 21/16 A2983 RMK A01 T02070155  RH  075%=      5-min Rain = 0
KTIS 230625Z 16012KT 21/16 A2983 RMK A01 T02060156  RH  076%=      5-min Rain = 0
KTIS 230630Z 16012KT 20/16 A2983 RMK A01 T02040156  RH  077%=      5-min Rain = 0
KTIS 230635Z 16010KT 20/16 A2983 RMK A01 T02030157  RH  078%=      5-min Rain = 0
KTIS 230640Z 16010KT 20/16 A2984 RMK A01 T02010157  RH  080%=      5-min Rain = 0
KTIS 230645Z 16009KT 20/16 A2984 RMK A01 T02000158  RH  081%=      5-min Rain = 0
KTIS 230650Z 16009KT 20/16 A2984 RMK A01 T01990158  RH  081%=      5-min Rain = 0
KTIS 230655Z 16010KT 20/16 A2984 RMK A01 T01990160  RH  082%=      5-min Rain = 0
KTIS 230700Z 16011KT 20/16 A2984 RMK A01 T02010161  RH  082%=      5-min Rain = 0
KTIS 230705Z 16010KT 20/16 A2984 RMK A01 T02010163  RH  082%=      5-min Rain = 0
KTIS 230710Z 16011KT 20/17 A2984 RMK A01 T02020165  RH  083%=      5-min Rain = 0
KTIS 230715Z 16012KT 20/17 A2984 RMK A01 T02040167  RH  083%=      5-min Rain = 0
KTIS 230720Z 16012KT 21/17 A2984 RMK A01 T02050169  RH  084%=      5-min Rain = 0
KTIS 230725Z 16012KT 21/17 A2985 RMK A01 T02060171  RH  084%=      5-min Rain = 0
KTIS 230730Z 16013G18KT 21/17 A2985 RMK A01 T02060172  RH  085%=      5-min Rain = 0
KTIS 230735Z 16012KT 21/17 A2985 RMK A01 T02070173  RH  085%=      5-min Rain = 0
KTIS 230740Z 16012G17KT 21/17 A2985 RMK A01 T02070174  RH  086%=      5-min Rain = 0
KTIS 230745Z 16012KT 21/17 A2985 RMK A01 T02060174  RH  086%=      5-min Rain = 0
KTIS 230750Z 16012KT 21/17 A2985 RMK A01 T02050174  RH  086%=      5-min Rain = 0
KTIS 230755Z 16013G18KT 21/17 A2985 RMK A01 T02050174  RH  087%=      5-min Rain = 0
KTIS 230800Z 16012KT 20/17 A2985 RMK A01 T02040174  RH  087%=      5-min Rain = 0
KTIS 230805Z 16012KT 20/17 A2985 RMK A01 T02030174  RH  088%=      5-min Rain = 0
KTIS 230810Z 16012KT 20/17 A2985 RMK A01 T02030174  RH  088%=      5-min Rain = 0
KTIS 230815Z 16011KT 20/17 A2985 RMK A01 T02010174  RH  089%=      5-min Rain = 0
KTIS 230820Z 16012KT 20/17 A2985 RMK A01 T02010174  RH  089%=      5-min Rain = 0
KTIS 230825Z 16011KT 20/18 A2985 RMK A01 T02010175  RH  089%=      5-min Rain = 0
KTIS 230830Z 15010KT 20/17 A2985 RMK A01 T02000174  RH  090%=      5-min Rain = 0
KTIS 230835Z 16011KT 20/17 A2986 RMK A01 T01980174  RH  091%=      5-min Rain = 0
KTIS 230840Z 16011KT 20/18 A2986 RMK A01 T01990175  RH  091%=      5-min Rain = 0
KTIS 230845Z 16011KT 20/18 A2986 RMK A01 T02000176  RH  090%=      5-min Rain = 0
KTIS 230850Z 16011KT 20/18 A2986 RMK A01 T02020177  RH  090%=      5-min Rain = 0
KTIS 230855Z 16010KT 20/18 A2986 RMK A01 T02030177  RH  090%=      5-min Rain = 0
KTIS 230900Z 16011KT 20/18 A2986 RMK A01 T02030177  RH  090%=      5-min Rain = 0
KTIS 230905Z 16012KT 20/18 A2986 RMK A01 T02040178  RH  090%=      5-min Rain = 0
KTIS 230910Z 16012G17KT 21/18 A2986 RMK A01 T02050179  RH  090%=      5-min Rain = 0
KTIS 230915Z 16012G17KT 21/18 A2986 RMK A01 T02050180  RH  090%=      5-min Rain = 0
KTIS 230920Z 16013KT 21/18 A2986 RMK A01 T02050180  RH  090%=      5-min Rain = 0
KTIS 230925Z 16012G17KT 21/18 A2986 RMK A01 T02060181  RH  090%=      5-min Rain = 0
KTIS 230930Z 16012KT 21/18 A2986 RMK A01 T02060181  RH  090%=      5-min Rain = 0
KTIS 230935Z 16012KT 21/18 A2987 RMK A01 T02060181  RH  090%=      5-min Rain = 0
KTIS 230940Z 16012G17KT 21/18 A2987 RMK A01 T02060181  RH  090%=      5-min Rain = 0
KTIS 230945Z 16012G17KT 21/18 A2987 RMK A01 T02060182  RH  091%=      5-min Rain = 0
KTIS 230950Z 16012KT 21/18 A2987 RMK A01 T02060182  RH  091%=      5-min Rain = 0
KTIS 230955Z 17012KT 21/18 A2987 RMK A01 T02070183  RH  091%=      5-min Rain = 0
KTIS 231000Z 17012KT 21/18 A2987 RMK A01 T02080183  RH  091%=      5-min Rain = 0
KTIS 231005Z 16012KT 21/18 A2987 RMK A01 T02080184  RH  091%=      5-min Rain = 0
KTIS 231010Z 17010KT 21/18 A2987 RMK A01 T02080184  RH  091%=      5-min Rain = 0
KTIS 231015Z 17011KT 21/18 A2987 RMK A01 T02080184  RH  091%=      5-min Rain = 0
KTIS 231020Z 17010KT 21/18 A2987 RMK A01 T02090184  RH  091%=      5-min Rain = 0
KTIS 231025Z 17011KT 21/18 A2987 RMK A01 T02090184  RH  091%=      5-min Rain = 0
KTIS 231030Z 17010KT 21/18 A2988 RMK A01 T02090184  RH  090%=      5-min Rain = 0
KTIS 231035Z 17009KT 21/18 A2988 RMK A01 T02090184  RH  090%=      5-min Rain = 0
KTIS 231040Z 17009KT 21/18 A2988 RMK A01 T02090184  RH  091%=      5-min Rain = 0
KTIS 231045Z 17009KT 21/18 A2988 RMK A01 T02090184  RH  091%=      5-min Rain = 0
KTIS 231050Z 17008KT 21/18 A2988 RMK A01 T02090184  RH  091%=      5-min Rain = 0
KTIS 231055Z 17008KT 21/18 A2988 RMK A01 T02090184  RH  091%=      5-min Rain = 0
KTIS 231100Z 17007KT 21/18 A2988 RMK A01 T02080184  RH  091%=      5-min Rain = 0
KTIS 231105Z 17008KT 21/18 A2988 RMK A01 T02080184  RH  091%=      5-min Rain = 0
KTIS 231110Z 16007KT 21/18 A2988 RMK A01 T02080184  RH  091%=      5-min Rain = 0
KTIS 231115Z 16006KT 21/18 A2988 RMK A01 T02070184  RH  092%=      5-min Rain = 0
KTIS 231120Z 15007KT 21/18 A2988 RMK A01 T02060184  RH  092%=      5-min Rain = 0
KTIS 231125Z 15006KT 21/18 A2988 RMK A01 T02050183  RH  092%=      5-min Rain = 0
KTIS 231130Z 14006KT 20/18 A2988 RMK A01 T02030182  RH  093%=      5-min Rain = 0
KTIS 231135Z 14006KT 20/18 A2988 RMK A01 T02020182  RH  093%=      5-min Rain = 0
KTIS 231140Z 14006KT 20/18 A2988 RMK A01 T02010182  RH  093%=      5-min Rain = 0
KTIS 231145Z 14006KT 20/18 A2988 RMK A01 T02010182  RH  094%=      5-min Rain = 0
KTIS 231150Z 14006KT 20/18 A2989 RMK A01 T02010182  RH  094%=      5-min Rain = 0
KTIS 231155Z 13007KT 20/18 A2989 RMK A01 T02010183  RH  094%=      5-min Rain = 0
KTIS 231200Z 13007KT 20/18 A2989 RMK A01 T02020183  RH  094%=      5-min Rain = 0
KTIS 231205Z 13008KT 20/18 A2989 RMK A01 T02020183  RH  094%=      5-min Rain = 0
KTIS 231210Z 13008KT 20/18 A2989 RMK A01 T02030184  RH  093%=      5-min Rain = 0
KTIS 231215Z 12009KT 20/18 A2989 RMK A01 T02030184  RH  093%=      5-min Rain = 0
KTIS 231220Z 12009KT 20/18 A2989 RMK A01 T02030184  RH  093%=      5-min Rain = 0
KTIS 231225Z 11008KT 20/18 A2989 RMK A01 T02020183  RH  094%=      5-min Rain = 0
KTIS 231230Z 11009KT 20/18 A2989 RMK A01 T02020183  RH  094%=      5-min Rain = 0
KTIS 231235Z 11008KT 20/18 A2989 RMK A01 T02010182  RH  094%=      5-min Rain = 0
KTIS 231240Z 11008KT 20/18 A2989 RMK A01 T01990182  RH  094%=      5-min Rain = 0
KTIS 231245Z 11007KT 20/18 A2989 RMK A01 T02000183  RH  095%=      5-min Rain = 0
KTIS 231250Z 11008KT 20/18 A299 RMK A01 T02010184  RH  095%=      5-min Rain = 0
KTIS 231255Z 12009KT 20/19 A299 RMK A01 T02020185  RH  095%=      5-min Rain = 0
KTIS 231300Z 12009KT 20/19 A299 RMK A01 T02030185  RH  095%=      5-min Rain = 0
KTIS 231305Z 13010KT 20/19 A299 RMK A01 T02040186  RH  094%=      5-min Rain = 0
KTIS 231310Z 13011KT 21/19 A299 RMK A01 T02060187  RH  094%=      5-min Rain = 0
KTIS 231315Z 14010KT 21/19 A299 RMK A01 T02070187  RH  093%=      5-min Rain = 0
KTIS 231320Z 14010KT 21/19 A299 RMK A01 T02090188  RH  093%=      5-min Rain = 0
KTIS 231325Z 14011KT 21/19 A299 RMK A01 T02090187  RH  092%=      5-min Rain = 0
KTIS 231330Z 14012KT 21/19 A299 RMK A01 T02100187  RH  092%=      5-min Rain = 0
KTIS 231335Z 14013KT 21/19 A299 RMK A01 T02110187  RH  091%=      5-min Rain = 0
KTIS 231340Z 14013G18KT 21/19 A299 RMK A01 T02130187  RH  090%=      5-min Rain = 0
KTIS 231345Z 14014G19KT 22/19 A299 RMK A01 T02150187  RH  089%=      5-min Rain = 0
KTIS 231350Z 14014G19KT 22/19 A299 RMK A01 T02160187  RH  088%=      5-min Rain = 0
KTIS 231355Z 14016G21KT 22/19 A2989 RMK A01 T02170187  RH  088%=      5-min Rain = 0
KTIS 231400Z 14016G21KT 22/19 A2989 RMK A01 T02170186  RH  088%=      5-min Rain = 0
KTIS 231405Z 14015G20KT 22/19 A299 RMK A01 T02170187  RH  088%=      5-min Rain = 0
KTIS 231410Z 15014KT 22/19 A299 RMK A01 T02180187  RH  087%=      5-min Rain = 0
KTIS 231415Z 15016G21KT 22/19 A299 RMK A01 T02180187  RH  087%=      5-min Rain = 0
KTIS 231420Z 15015KT 22/19 A299 RMK A01 T02200187  RH  086%=      5-min Rain = 0
KTIS 231425Z 15015G20KT 22/19 A299 RMK A01 T02220188  RH  085%=      5-min Rain = 0
KTIS 231430Z 15017G23KT 23/19 A299 RMK A01 T02280189  RH  083%=      5-min Rain = 0
KTIS 231435Z 15016G21KT 24/19 A2989 RMK A01 T02350192  RH  081%=      5-min Rain = 0
KTIS 231440Z 16019G25KT 24/19 A2989 RMK A01 T02350190  RH  080%=      5-min Rain = 0
KTIS 231445Z 16018KT 24/19 A2989 RMK A01 T02350190  RH  080%=      5-min Rain = 0
KTIS 231450Z 16017KT 24/19 A2989 RMK A01 T02370191  RH  080%=      5-min Rain = 0
KTIS 231455Z 17017G22KT 24/19 A2989 RMK A01 T02410191  RH  078%=      5-min Rain = 0
KTIS 231500Z 17020G27KT 24/19 A2989 RMK A01 T02420190  RH  077%=      5-min Rain = 0
KTIS 231505Z 16019G24KT 24/19 A2989 RMK A01 T02420190  RH  077%=      5-min Rain = 0
KTIS 231510Z 16019G26KT 24/19 A2989 RMK A01 T02410190  RH  078%=      5-min Rain = 0
KTIS 231515Z 16018G27KT 24/19 A2989 RMK A01 T02420190  RH  077%=      5-min Rain = 0
KTIS 231520Z 17020G27KT 24/19 A2989 RMK A01 T02420189  RH  076%=      5-min Rain = 0
KTIS 231525Z 17020G27KT 24/19 A2989 RMK A01 T02440189  RH  076%=      5-min Rain = 0
KTIS 231530Z 16022G28KT 25/19 A2989 RMK A01 T02460189  RH  075%=      5-min Rain = 0
KTIS 231535Z 16022G29KT 25/19 A299 RMK A01 T02450189  RH  075%=      5-min Rain = 0
KTIS 231540Z 16021G27KT 25/19 A299 RMK A01 T02460189  RH  074%=      5-min Rain = 0
KTIS 231545Z 16020G28KT 25/19 A299 RMK A01 T02510191  RH  073%=      5-min Rain = 0
KTIS 231550Z 16021G29KT 25/19 A299 RMK A01 T02490189  RH  073%=      5-min Rain = 0
KTIS 231555Z 16021G27KT 25/19 A299 RMK A01 T02500189  RH  072%=      5-min Rain = 0
KTIS 231600Z 16022G27KT 25/19 A299 RMK A01 T02510189  RH  072%=      5-min Rain = 0
KTIS 231605Z 16020G25KT 25/19 A299 RMK A01 T02490188  RH  073%=      5-min Rain = 0
KTIS 231610Z 16019G25KT 26/19 A2989 RMK A01 T02550190  RH  071%=      5-min Rain = 0
KTIS 231615Z 16020G25KT 26/19 A2989 RMK A01 T02550189  RH  071%=      5-min Rain = 0
KTIS 231620Z 16020G26KT 26/19 A2989 RMK A01 T02600189  RH  069%=      5-min Rain = 0
KTIS 231625Z 16021G27KT 26/19 A2989 RMK A01 T02600188  RH  068%=      5-min Rain = 0
KTIS 231630Z 16020G27KT 26/19 A2989 RMK A01 T02580187  RH  069%=      5-min Rain = 0
KTIS 231635Z 16019G24KT 26/19 A2989 RMK A01 T02600187  RH  068%=      5-min Rain = 0
KTIS 231640Z 16019KT 26/19 A2989 RMK A01 T02600188  RH  068%=      5-min Rain = 0
KTIS 231645Z 16020G26KT 26/19 A2989 RMK A01 T02620188  RH  068%=      5-min Rain = 0
KTIS 231650Z 17022KT 26/19 A2989 RMK A01 T02640185  RH  065%=      5-min Rain = 0
KTIS 231655Z 17019G25KT 27/19 A2989 RMK A01 T02660186  RH  065%=      5-min Rain = 0
KTIS 231700Z 17021G28KT 26/18 A2989 RMK A01 T02590184  RH  067%=      5-min Rain = 0
KTIS 231705Z 18021G26KT 26/18 A2989 RMK A01 T02640183  RH  064%=      5-min Rain = 0
KTIS 231710Z 17021G27KT 27/18 A2989 RMK A01 T02660182  RH  063%=      5-min Rain = 0
KTIS 231715Z 17019G27KT 27/18 A2989 RMK A01 T02680184  RH  063%=      5-min Rain = 0
KTIS 231720Z 17022KT 27/18 A2989 RMK A01 T02700182  RH  062%=      5-min Rain = 0
KTIS 231725Z 17021G28KT 27/18 A2989 RMK A01 T02720184  RH  062%=      5-min Rain = 0
KTIS 231730Z 17020G29KT 28/18 A2989 RMK A01 T02770182  RH  059%=      5-min Rain = 0
KTIS 231735Z 16019G27KT 28/19 A2988 RMK A01 T02760186  RH  061%=      5-min Rain = 0
KTIS 231740Z 16021G27KT 27/18 A2988 RMK A01 T02740184  RH  061%=      5-min Rain = 0
KTIS 231745Z 17020G30KT 28/18 A2988 RMK A01 T02770184  RH  060%=      5-min Rain = 0
KTIS 231750Z 16020G26KT 28/18 A2988 RMK A01 T02760183  RH  060%=      5-min Rain = 0
KTIS 231755Z 16021G29KT 28/18 A2988 RMK A01 T02790184  RH  059%=      5-min Rain = 0
KTIS 231800Z 16021G29KT 28/18 A2988 RMK A01 T02790183  RH  059%=      5-min Rain = 0
KTIS 231805Z 16020G26KT 28/19 A2988 RMK A01 T02800185  RH  059%=      5-min Rain = 0
KTIS 231810Z 16019G24KT 28/18 A2988 RMK A01 T02820184  RH  059%=      5-min Rain = 0
KTIS 231815Z 17022G27KT 28/18 A2988 RMK A01 T02790181  RH  058%=      5-min Rain = 0
KTIS 231820Z 17019G27KT 28/18 A2987 RMK A01 T02840181  RH  056%=      5-min Rain = 0
KTIS 231825Z 16020G27KT 28/18 A2987 RMK A01 T02840182  RH  057%=      5-min Rain = 0
KTIS 231830Z 16020G27KT 28/18 A2987 RMK A01 T02810180  RH  057%=      5-min Rain = 0
KTIS 231835Z 17020G27KT 29/18 A2987 RMK A01 T02850176  RH  054%=      5-min Rain = 0
KTIS 231840Z 16018G24KT 29/18 A2987 RMK A01 T02910179  RH  054%=      5-min Rain = 0
KTIS 231845Z 16020G26KT 29/18 A2987 RMK A01 T02850180  RH  056%=      5-min Rain = 0
KTIS 231850Z 16020G28KT 29/18 A2986 RMK A01 T02880182  RH  056%=      5-min Rain = 0
KTIS 231855Z 16021G28KT 29/18 A2986 RMK A01 T02900180  RH  054%=      5-min Rain = 0
KTIS 231900Z 17020G28KT 29/18 A2986 RMK A01 T02880179  RH  054%=      5-min Rain = 0
KTIS 231905Z 17019G24KT 29/18 A2986 RMK A01 T02930179  RH  053%=      5-min Rain = 0
KTIS 231910Z 15021G27KT 29/18 A2985 RMK A01 T02880179  RH  055%=      5-min Rain = 0
KTIS 231915Z 15018G27KT 29/19 A2985 RMK A01 T02930186  RH  055%=      5-min Rain = 0
KTIS 231920Z 15021G29KT 29/18 A2985 RMK A01 T02880181  RH  055%=      5-min Rain = 0
KTIS 231925Z 16021G26KT 28/18 A2985 RMK A01 T02840181  RH  057%=      5-min Rain = 0
KTIS 231930Z 15020G27KT 29/18 A2985 RMK A01 T02890181  RH  055%=      5-min Rain = 0
KTIS 231935Z 15021G32KT 29/18 A2985 RMK A01 T02860178  RH  055%=      5-min Rain = 0
KTIS 231940Z 16019G31KT 29/18 A2985 RMK A01 T02880177  RH  054%=      5-min Rain = 0
KTIS 231945Z 16018G23KT 29/18 A2985 RMK A01 T02890180  RH  054%=      5-min Rain = 0
KTIS 231950Z 17020G29KT 29/17 A2985 RMK A01 T02910173  RH  051%=      5-min Rain = 0
KTIS 231955Z 16020G26KT 29/17 A2985 RMK A01 T02930173  RH  051%=      5-min Rain = 0
KTIS 232000Z 16019G26KT 29/17 A2985 RMK A01 T02890174  RH  052%=      5-min Rain = 0
KTIS 232005Z 16020G26KT 29/18 A2985 RMK A01 T02900176  RH  053%=      5-min Rain = 0
KTIS 232010Z 16020G26KT 29/17 A2985 RMK A01 T02900173  RH  052%=      5-min Rain = 0
KTIS 232015Z 16020G25KT 29/17 A2984 RMK A01 T02920174  RH  052%=      5-min Rain = 0
KTIS 232020Z 15021G27KT 29/18 A2984 RMK A01 T02920176  RH  052%=      5-min Rain = 0
KTIS 232025Z 16022G28KT 29/18 A2985 RMK A01 T02940178  RH  053%=      5-min Rain = 0
KTIS 232030Z 15019G25KT 30/18 A2984 RMK A01 T02950181  RH  053%=      5-min Rain = 0
KTIS 232035Z 16021G27KT 30/18 A2984 RMK A01 T02990176  RH  050%=      5-min Rain = 0
KTIS 232040Z 16020G26KT 29/18 A2984 RMK A01 T02930176  RH  052%=      5-min Rain = 0
KTIS 232045Z 15020G27KT 29/18 A2984 RMK A01 T02940176  RH  052%=      5-min Rain = 0
KTIS 232050Z 16023G31KT 30/18 A2984 RMK A01 T02980179  RH  051%=      5-min Rain = 0
KTIS 232055Z 15020G30KT 30/18 A2984 RMK A01 T02970180  RH  052%=      5-min Rain = 0
KTIS 232100Z 14024G35KT 29/18 A2983 RMK A01 T02880176  RH  054%=      5-min Rain = 0
KTIS 232105Z 15022G28KT 29/18 A2983 RMK A01 T02870175  RH  054%=      5-min Rain = 0
KTIS 232110Z 15022G27KT 29/18 A2983 RMK A01 T02900176  RH  053%=      5-min Rain = 0
KTIS 232115Z 15021G29KT 30/18 A2983 RMK A01 T02950179  RH  052%=      5-min Rain = 0
KTIS 232120Z 16023G29KT 30/18 A2983 RMK A01 T02980176  RH  051%=      5-min Rain = 0
KTIS 232125Z 15027G36KT 30/18 A2982 RMK A01 T02950178  RH  052%=      5-min Rain = 0
KTIS 232130Z 16024G32KT 29/18 A2982 RMK A01 T02940178  RH  052%=      5-min Rain = 0
KTIS 232135Z 15025G33KT 29/18 A2982 RMK A01 T02920176  RH  052%=      5-min Rain = 0
KTIS 232140Z 15026G33KT 29/18 A2981 RMK A01 T02920178  RH  053%=      5-min Rain = 0
KTIS 232145Z 15027G35KT 29/18 A2981 RMK A01 T02940177  RH  052%=      5-min Rain = 0
KTIS 232150Z 15024G33KT 29/18 A2981 RMK A01 T02940177  RH  052%=      5-min Rain = 0
KTIS 232155Z 16026G32KT 30/17 A2981 RMK A01 T02960173  RH  050%=      5-min Rain = 0
KTIS 232200Z 16026G32KT 30/18 A2981 RMK A01 T02960175  RH  051%=      5-min Rain = 0
KTIS 232205Z 15026G34KT 29/17 A2981 RMK A01 T02930174  RH  051%=      5-min Rain = 0
KTIS 232210Z 16026G33KT 29/17 A2981 RMK A01 T02900171  RH  051%=      5-min Rain = 0
KTIS 232215Z 16025G34KT 29/17 A2981 RMK A01 T02870170  RH  052%=      5-min Rain = 0
KTIS 232220Z 16025G33KT 28/17 A298 RMK A01 T02820168  RH  053%=      5-min Rain = 0
KTIS 232225Z 15026G34KT 28/17 A298 RMK A01 T02800168  RH  053%=      5-min Rain = 0
KTIS 232230Z 15025G31KT 28/17 A2981 RMK A01 T02780171  RH  055%=      5-min Rain = 0
KTIS 232235Z 15024G30KT 28/17 A2981 RMK A01 T02750172  RH  056%=      5-min Rain = 0
KTIS 232240Z 15025G34KT 27/17 A298 RMK A01 T02730171  RH  056%=      5-min Rain = 0
KTIS 232245Z 16025G33KT 27/17 A298 RMK A01 T02720171  RH  057%=      5-min Rain = 0
KTIS 232250Z 15026G37KT 27/17 A2981 RMK A01 T02720169  RH  056%=      5-min Rain = 0
KTIS 232255Z 16025G33KT 28/17 A2982 RMK A01 T02750170  RH  056%=      5-min Rain = 0
KTIS 232300Z 16026G35KT 28/17 A2982 RMK A01 T02750172  RH  056%=      5-min Rain = 0
KTIS 232305Z 15027G34KT 27/17 A2981 RMK A01 T02710171  RH  057%=      5-min Rain = 0
KTIS 232310Z 15023G30KT 28/17 A2981 RMK A01 T02750174  RH  057%=      5-min Rain = 0
KTIS 232315Z 16023G31KT 27/18 A2983 RMK A01 T02720176  RH  059%=      5-min Rain = 0
KTIS 232320Z 15022G30KT 27/18 A2983 RMK A01 T02680177  RH  061%=      5-min Rain = 0
KTIS 232325Z 16024G36KT 27/18 A2983 RMK A01 T02650176  RH  061%=      5-min Rain = 0
KTIS 232330Z 15025G36KT 26/18 A2983 RMK A01 T02630175  RH  061%=      5-min Rain = 0
KTIS 232335Z 15023G31KT 26/18 A2981 RMK A01 T02600175  RH  062%=      5-min Rain = 0
KTIS 232340Z 16024G32KT 26/18 A2983 RMK A01 T02590175  RH  063%=      5-min Rain = 0
KTIS 232345Z 16023G31KT 26/18 A2983 RMK A01 T02580175  RH  063%=      5-min Rain = 0
KTIS 232350Z 15022G31KT 26/18 A2982 RMK A01 T02560177  RH  065%=      5-min Rain = 0
KTIS 232355Z 16022G32KT 26/18 A2983 RMK A01 T02550177  RH  065%=      5-min Rain = 0
KTIS 240000Z 16023G30KT 26/18 A2983 RMK A01 T02550178  RH  066%=      5-min Rain = 0
KTIS 240005Z 15021G28KT 25/18 A2982 RMK A01 T02530179  RH  067%=      5-min Rain = 0
KTIS 240010Z 16022G30KT 25/18 A2983 RMK A01 T02510179  RH  068%=      5-min Rain = 0
KTIS 240015Z 16020G25KT 25/18 A2983 RMK A01 T02520180  RH  068%=      5-min Rain = 0
KTIS 240020Z 15023G30KT 26/18 A2982 RMK A01 T02560181  RH  067%=      5-min Rain = 0
KTIS 240025Z 15024G31KT 26/18 A2982 RMK A01 T02580182  RH  066%=      5-min Rain = 0
KTIS 240030Z 15024G32KT 26/18 A2982 RMK A01 T02600181  RH  065%=      5-min Rain = 0
KTIS 240035Z 15025G32KT 26/18 A2983 RMK A01 T02570180  RH  066%=      5-min Rain = 0
KTIS 240040Z 15019G31KT 25/18 A2983 RMK A01 T02540179  RH  066%=      5-min Rain = 0
KTIS 240045Z 14016G25KT 25/18 A2982 RMK A01 T02510178  RH  067%=      5-min Rain = 0
KTIS 240050Z 14019G27KT 25/18 A2982 RMK A01 T02500177  RH  067%=      5-min Rain = 0
KTIS 240055Z 14022G29KT 25/18 A2982 RMK A01 T02490178  RH  068%=      5-min Rain = 0
KTIS 240100Z 16032G51KT 26/15 A2981 RMK A01 T02620151  RH  053%=      5-min Rain = 0
KTIS 240105Z 14031G41KT 26/17 A2981 RMK A01 T02570173  RH  063%=      5-min Rain = 0
KTIS 240110Z 14031G41KT 25/17 A2981 RMK A01 T02520173  RH  065%=      5-min Rain = 0
KTIS 240115Z 13026G36KT 25/18 A2982 RMK A01 T02510175  RH  066%=      5-min Rain = 0
KTIS 240120Z 14028G37KT 25/16 A298 RMK A01 T02540160  RH  059%=      5-min Rain = 0
KTIS 240125Z 13029G41KT 26/17 A2982 RMK A01 T02590166  RH  060%=      5-min Rain = 0
KTIS 240130Z 13027G36KT 25/18 A2982 RMK A01 T02470177  RH  068%=      5-min Rain = 0
KTIS 240135Z 14022G30KT 25/18 A2984 RMK A01 T02460178  RH  069%=      5-min Rain = 0
KTIS 240140Z 14019G27KT 25/18 A2986 RMK A01 T02460177  RH  069%=      5-min Rain = 0
KTIS 240145Z 14016G24KT 25/18 A2986 RMK A01 T02460177  RH  069%=      5-min Rain = 0
KTIS 240150Z 13016KT 24/18 A2984 RMK A01 T02440177  RH  070%=      5-min Rain = 0
KTIS 240155Z 13020G29KT 24/18 A2985 RMK A01 T02440176  RH  069%=      5-min Rain = 0
KTIS 240200Z 13021G26KT 24/18 A2986 RMK A01 T02440176  RH  069%=      5-min Rain = 0
KTIS 240205Z 12020G32KT 24/18 A2985 RMK A01 T02430176  RH  069%=      5-min Rain = 0
KTIS 240210Z 14022G29KT 24/18 A2986 RMK A01 T02440175  RH  069%=      5-min Rain = 0
KTIS 240215Z 13020G26KT 24/18 A2986 RMK A01 T02430175  RH  069%=      5-min Rain = 0
KTIS 240220Z 13021G27KT 24/17 A2986 RMK A01 T02420174  RH  069%=      5-min Rain = 0
KTIS 240225Z 13021G27KT 24/17 A2987 RMK A01 T02420173  RH  069%=      5-min Rain = 0
KTIS 240230Z 12021G29KT 24/17 A2986 RMK A01 T02420173  RH  069%=      5-min Rain = 0
KTIS 240235Z 12019G28KT 24/17 A2986 RMK A01 T02410172  RH  069%=      5-min Rain = 0
KTIS 240240Z 15018G26KT 24/17 A2989 RMK A01 T02410172  RH  069%=      5-min Rain = 0
KTIS 240245Z 14019G26KT 24/17 A299 RMK A01 T02400172  RH  069%=      5-min Rain = 0
KTIS 240250Z 15024G33KT 24/17 A2991 RMK A01 T02360166  RH  068%=      5-min Rain = 0
KTIS 240255Z 14022G30KT 23/15 A2989 RMK A01 T02290151  RH  064%=      5-min Rain = 0
KTIS 240300Z 13022G29KT 22/15 A2989 RMK A01 T02240146  RH  064%=      5-min Rain = 0
KTIS 240305Z 14015G22KT 22/15 A2991 RMK A01 T02210145  RH  065%=      5-min Rain = 0
KTIS 240310Z 14013G20KT 22/14 A2992 RMK A01 T02200142  RH  064%=      5-min Rain = 0
KTIS 240315Z 14008KT 22/14 A2992 RMK A01 T02190142  RH  064%=      5-min Rain = 0
KTIS 240320Z 12009KT 22/14 A2991 RMK A01 T02150142  RH  066%=      5-min Rain = 0
KTIS 240325Z 12012KT 22/14 A2991 RMK A01 T02150137  RH  064%=      5-min Rain = 0
KTIS 240330Z 14014KT 22/13 A2992 RMK A01 T02160133  RH  061%=      5-min Rain = 0
KTIS 240335Z 14014KT 22/13 A2992 RMK A01 T02180128  RH  059%=      5-min Rain = 0
KTIS 240340Z 13014KT 22/13 A2992 RMK A01 T02160127  RH  059%=      5-min Rain = 0
KTIS 240345Z 11016KT 21/13 A2991 RMK A01 T02120130  RH  062%=      5-min Rain = 0
KTIS 240350Z 12011KT 21/13 A2992 RMK A01 T02120127  RH  060%=      5-min Rain = 0
KTIS 240355Z 18008G13KT 21/12 A2994 RMK A01 T02110123  RH  059%=      5-min Rain = 0
KTIS 240400Z 22007KT 21/12 A2994 RMK A01 T02120118  RH  057%=      5-min Rain = 0
KTIS 240405Z 19007KT 21/12 A2994 RMK A01 T02120116  RH  057%=      5-min Rain = 0
KTIS 240410Z 20006KT 21/12 A2995 RMK A01 T02110117  RH  057%=      5-min Rain = 0
KTIS 240415Z 23004KT 21/11 A2995 RMK A01 T02120113  RH  055%=      5-min Rain = 0
KTIS 240420Z 16001KT 21/11 A2995 RMK A01 T02130109  RH  053%=      5-min Rain = 0
KTIS 240425Z 19003KT 21/11 A2996 RMK A01 T02140106  RH  052%=      5-min Rain = 0
KTIS 240430Z 13006KT 21/11 A2996 RMK A01 T02110107  RH  053%=      5-min Rain = 0
KTIS 240435Z 12005KT 21/11 A2996 RMK A01 T02090109  RH  055%=      5-min Rain = 0
KTIS 240440Z 11005KT 20/12 A2996 RMK A01 T02030117  RH  060%=      5-min Rain = 0
KTIS 240445Z 14009G23KT 20/11 A2996 RMK A01 T02040111  RH  057%=      5-min Rain = 0
KTIS 240450Z 11020G29KT 21/11 A2994 RMK A01 T02110114  RH  056%=      5-min Rain = 0
KTIS 240455Z 16008G18KT 20/12 A2996 RMK A01 T01970119  RH  063%=      5-min Rain = 0

Page generated in 0.0436 seconds.